sensor_id;sensor_type;location;lat;lon;timestamp;P1;durP1;ratioP1;P2;durP2;ratioP2
25279;SDS011;13225;47.804;12.116;2022-07-29T00:00:47;3.63;;;2.60;;
25279;SDS011;13225;47.804;12.116;2022-07-29T00:03:13;3.50;;;2.40;;
25279;SDS011;13225;47.804;12.116;2022-07-29T00:05:40;4.32;;;2.90;;
25279;SDS011;13225;47.804;12.116;2022-07-29T00:08:06;4.63;;;2.53;;
25279;SDS011;13225;47.804;12.116;2022-07-29T00:10:32;2.83;;;2.30;;
25279;SDS011;13225;47.804;12.116;2022-07-29T00:12:58;4.28;;;2.70;;
25279;SDS011;13225;47.804;12.116;2022-07-29T00:15:24;2.78;;;2.50;;
25279;SDS011;13225;47.804;12.116;2022-07-29T00:17:50;2.90;;;2.60;;
25279;SDS011;13225;47.804;12.116;2022-07-29T00:20:16;3.53;;;2.40;;
25279;SDS011;13225;47.804;12.116;2022-07-29T00:22:42;3.35;;;2.53;;
25279;SDS011;13225;47.804;12.116;2022-07-29T00:25:07;3.88;;;2.70;;
25279;SDS011;13225;47.804;12.116;2022-07-29T00:27:34;2.97;;;2.67;;
25279;SDS011;13225;47.804;12.116;2022-07-29T00:30:00;4.68;;;2.70;;
25279;SDS011;13225;47.804;12.116;2022-07-29T00:32:27;3.70;;;2.40;;
25279;SDS011;13225;47.804;12.116;2022-07-29T00:34:52;3.70;;;2.80;;
25279;SDS011;13225;47.804;12.116;2022-07-29T00:37:36;5.63;;;2.75;;
25279;SDS011;13225;47.804;12.116;2022-07-29T00:40:02;2.90;;;2.70;;
25279;SDS011;13225;47.804;12.116;2022-07-29T00:42:28;2.80;;;2.60;;
25279;SDS011;13225;47.804;12.116;2022-07-29T00:44:54;3.08;;;2.38;;
25279;SDS011;13225;47.804;12.116;2022-07-29T00:47:20;3.10;;;2.55;;
25279;SDS011;13225;47.804;12.116;2022-07-29T00:49:46;5.53;;;2.70;;
25279;SDS011;13225;47.804;12.116;2022-07-29T00:52:12;2.55;;;2.35;;
25279;SDS011;13225;47.804;12.116;2022-07-29T00:54:38;2.60;;;2.40;;
25279;SDS011;13225;47.804;12.116;2022-07-29T00:57:05;2.70;;;2.50;;
25279;SDS011;13225;47.804;12.116;2022-07-29T00:59:32;3.47;;;2.60;;
25279;SDS011;13225;47.804;12.116;2022-07-29T01:01:59;3.90;;;2.50;;
25279;SDS011;13225;47.804;12.116;2022-07-29T01:04:25;4.40;;;2.10;;
25279;SDS011;13225;47.804;12.116;2022-07-29T01:06:51;2.72;;;2.53;;
25279;SDS011;13225;47.804;12.116;2022-07-29T01:09:18;2.45;;;2.25;;
25279;SDS011;13225;47.804;12.116;2022-07-29T01:11:44;2.83;;;2.22;;
25279;SDS011;13225;47.804;12.116;2022-07-29T01:14:13;3.25;;;1.90;;
25279;SDS011;13225;47.804;12.116;2022-07-29T01:16:59;3.00;;;2.28;;
25279;SDS011;13225;47.804;12.116;2022-07-29T01:31:10;2.58;;;1.85;;
25279;SDS011;13225;47.804;12.116;2022-07-29T01:33:38;2.58;;;2.03;;
25279;SDS011;13225;47.804;12.116;2022-07-29T01:36:22;1.98;;;1.88;;
25279;SDS011;13225;47.804;12.116;2022-07-29T01:39:18;2.90;;;1.90;;
25279;SDS011;13225;47.804;12.116;2022-07-29T01:42:10;2.67;;;2.30;;
25279;SDS011;13225;47.804;12.116;2022-07-29T01:44:54;2.53;;;1.90;;
25279;SDS011;13225;47.804;12.116;2022-07-29T01:47:25;3.00;;;1.90;;
25279;SDS011;13225;47.804;12.116;2022-07-29T01:49:56;2.95;;;2.20;;
25279;SDS011;13225;47.804;12.116;2022-07-29T01:52:33;4.18;;;2.50;;
25279;SDS011;13225;47.804;12.116;2022-07-29T01:55:04;3.70;;;2.25;;
25279;SDS011;13225;47.804;12.116;2022-07-29T01:57:36;2.55;;;2.00;;
25279;SDS011;13225;47.804;12.116;2022-07-29T02:00:04;3.55;;;2.10;;
25279;SDS011;13225;47.804;12.116;2022-07-29T02:02:31;2.15;;;1.95;;
25279;SDS011;13225;47.804;12.116;2022-07-29T02:04:59;2.88;;;2.03;;
25279;SDS011;13225;47.804;12.116;2022-07-29T02:07:27;2.53;;;1.92;;
25279;SDS011;13225;47.804;12.116;2022-07-29T02:09:56;2.00;;;1.80;;
25279;SDS011;13225;47.804;12.116;2022-07-29T02:12:23;2.35;;;1.92;;
25279;SDS011;13225;47.804;12.116;2022-07-29T02:14:51;2.78;;;2.17;;
25279;SDS011;13225;47.804;12.116;2022-07-29T02:17:23;2.10;;;1.90;;
25279;SDS011;13225;47.804;12.116;2022-07-29T02:19:57;2.17;;;1.98;;
25279;SDS011;13225;47.804;12.116;2022-07-29T02:22:26;2.67;;;2.00;;
25279;SDS011;13225;47.804;12.116;2022-07-29T02:24:55;3.45;;;2.10;;
25279;SDS011;13225;47.804;12.116;2022-07-29T02:27:23;2.20;;;1.77;;
25279;SDS011;13225;47.804;12.116;2022-07-29T02:29:52;2.25;;;2.05;;
25279;SDS011;13225;47.804;12.116;2022-07-29T02:32:19;2.65;;;1.85;;
25279;SDS011;13225;47.804;12.116;2022-07-29T02:34:47;2.63;;;2.28;;
25279;SDS011;13225;47.804;12.116;2022-07-29T02:37:15;2.53;;;2.20;;
25279;SDS011;13225;47.804;12.116;2022-07-29T02:39:43;2.28;;;2.08;;
25279;SDS011;13225;47.804;12.116;2022-07-29T02:42:11;2.08;;;1.90;;
25279;SDS011;13225;47.804;12.116;2022-07-29T02:44:40;3.28;;;2.22;;
25279;SDS011;13225;47.804;12.116;2022-07-29T02:47:14;8.02;;;2.40;;
25279;SDS011;13225;47.804;12.116;2022-07-29T02:49:52;2.28;;;2.03;;
25279;SDS011;13225;47.804;12.116;2022-07-29T02:52:32;2.25;;;2.05;;
25279;SDS011;13225;47.804;12.116;2022-07-29T02:55:10;3.90;;;2.10;;
25279;SDS011;13225;47.804;12.116;2022-07-29T02:58:09;2.47;;;2.08;;
25279;SDS011;13225;47.804;12.116;2022-07-29T03:00:37;2.85;;;1.98;;
25279;SDS011;13225;47.804;12.116;2022-07-29T03:03:07;3.35;;;2.13;;
25279;SDS011;13225;47.804;12.116;2022-07-29T03:05:37;2.58;;;2.22;;
25279;SDS011;13225;47.804;12.116;2022-07-29T03:08:04;3.50;;;2.33;;
25279;SDS011;13225;47.804;12.116;2022-07-29T03:10:31;2.88;;;2.10;;
25279;SDS011;13225;47.804;12.116;2022-07-29T03:12:58;2.83;;;2.45;;
25279;SDS011;13225;47.804;12.116;2022-07-29T03:15:24;2.83;;;2.45;;
25279;SDS011;13225;47.804;12.116;2022-07-29T03:17:51;2.83;;;2.15;;
25279;SDS011;13225;47.804;12.116;2022-07-29T03:20:18;4.97;;;2.20;;
25279;SDS011;13225;47.804;12.116;2022-07-29T03:22:44;3.70;;;2.20;;
25279;SDS011;13225;47.804;12.116;2022-07-29T03:25:14;2.40;;;2.20;;
25279;SDS011;13225;47.804;12.116;2022-07-29T03:27:43;5.63;;;2.50;;
25279;SDS011;13225;47.804;12.116;2022-07-29T03:30:09;2.33;;;2.10;;
25279;SDS011;13225;47.804;12.116;2022-07-29T03:32:36;3.42;;;2.72;;
25279;SDS011;13225;47.804;12.116;2022-07-29T03:35:02;3.22;;;2.20;;
25279;SDS011;13225;47.804;12.116;2022-07-29T03:37:29;2.63;;;2.30;;
25279;SDS011;13225;47.804;12.116;2022-07-29T03:39:56;2.30;;;2.10;;
25279;SDS011;13225;47.804;12.116;2022-07-29T03:42:24;2.58;;;2.13;;
25279;SDS011;13225;47.804;12.116;2022-07-29T03:44:52;2.97;;;2.20;;
25279;SDS011;13225;47.804;12.116;2022-07-29T03:47:25;2.10;;;2.00;;
25279;SDS011;13225;47.804;12.116;2022-07-29T03:49:53;3.65;;;2.30;;
25279;SDS011;13225;47.804;12.116;2022-07-29T03:52:23;2.88;;;2.30;;
25279;SDS011;13225;47.804;12.116;2022-07-29T03:54:49;3.55;;;2.28;;
25279;SDS011;13225;47.804;12.116;2022-07-29T03:57:15;2.33;;;2.13;;
25279;SDS011;13225;47.804;12.116;2022-07-29T03:59:41;2.83;;;2.10;;
25279;SDS011;13225;47.804;12.116;2022-07-29T04:02:09;5.60;;;2.08;;
25279;SDS011;13225;47.804;12.116;2022-07-29T04:04:36;2.92;;;2.13;;
25279;SDS011;13225;47.804;12.116;2022-07-29T04:07:02;2.50;;;2.30;;
25279;SDS011;13225;47.804;12.116;2022-07-29T04:09:29;2.08;;;1.98;;
25279;SDS011;13225;47.804;12.116;2022-07-29T04:11:55;2.97;;;2.20;;
25279;SDS011;13225;47.804;12.116;2022-07-29T04:14:21;2.10;;;1.90;;
25279;SDS011;13225;47.804;12.116;2022-07-29T04:16:47;2.42;;;2.17;;
25279;SDS011;13225;47.804;12.116;2022-07-29T04:19:13;2.78;;;2.10;;
25279;SDS011;13225;47.804;12.116;2022-07-29T04:21:39;2.28;;;2.00;;
25279;SDS011;13225;47.804;12.116;2022-07-29T04:24:06;3.15;;;2.05;;
25279;SDS011;13225;47.804;12.116;2022-07-29T04:26:33;3.60;;;2.10;;
25279;SDS011;13225;47.804;12.116;2022-07-29T04:28:59;3.08;;;2.00;;
25279;SDS011;13225;47.804;12.116;2022-07-29T04:31:25;3.60;;;2.13;;
25279;SDS011;13225;47.804;12.116;2022-07-29T04:33:51;2.72;;;2.03;;
25279;SDS011;13225;47.804;12.116;2022-07-29T04:36:17;3.53;;;2.60;;
25279;SDS011;13225;47.804;12.116;2022-07-29T04:38:42;3.92;;;2.58;;
25279;SDS011;13225;47.804;12.116;2022-07-29T04:41:08;3.08;;;2.50;;
25279;SDS011;13225;47.804;12.116;2022-07-29T04:43:34;3.42;;;2.50;;
25279;SDS011;13225;47.804;12.116;2022-07-29T04:46:01;2.83;;;2.45;;
25279;SDS011;13225;47.804;12.116;2022-07-29T04:48:28;2.85;;;2.08;;
25279;SDS011;13225;47.804;12.116;2022-07-29T04:50:53;3.55;;;2.22;;
25279;SDS011;13225;47.804;12.116;2022-07-29T04:53:20;4.38;;;2.38;;
25279;SDS011;13225;47.804;12.116;2022-07-29T04:55:46;2.17;;;1.92;;
25279;SDS011;13225;47.804;12.116;2022-07-29T04:58:11;3.47;;;2.20;;
25279;SDS011;13225;47.804;12.116;2022-07-29T05:00:37;2.25;;;1.95;;
25279;SDS011;13225;47.804;12.116;2022-07-29T05:03:05;3.08;;;1.90;;
25279;SDS011;13225;47.804;12.116;2022-07-29T05:05:31;3.33;;;2.03;;
25279;SDS011;13225;47.804;12.116;2022-07-29T05:07:57;2.35;;;2.17;;
25279;SDS011;13225;47.804;12.116;2022-07-29T05:10:23;2.40;;;2.17;;
25279;SDS011;13225;47.804;12.116;2022-07-29T05:12:49;5.18;;;2.30;;
25279;SDS011;13225;47.804;12.116;2022-07-29T05:15:15;5.10;;;2.00;;
25279;SDS011;13225;47.804;12.116;2022-07-29T05:17:42;3.65;;;2.45;;
25279;SDS011;13225;47.804;12.116;2022-07-29T05:20:09;3.15;;;2.30;;
25279;SDS011;13225;47.804;12.116;2022-07-29T05:22:35;2.50;;;2.08;;
25279;SDS011;13225;47.804;12.116;2022-07-29T05:25:01;2.25;;;2.05;;
25279;SDS011;13225;47.804;12.116;2022-07-29T05:27:27;3.03;;;2.10;;
25279;SDS011;13225;47.804;12.116;2022-07-29T05:29:54;3.47;;;2.38;;
25279;SDS011;13225;47.804;12.116;2022-07-29T05:32:20;2.45;;;2.20;;
25279;SDS011;13225;47.804;12.116;2022-07-29T05:34:45;2.38;;;2.17;;
25279;SDS011;13225;47.804;12.116;2022-07-29T05:37:11;2.40;;;2.20;;
25279;SDS011;13225;47.804;12.116;2022-07-29T05:39:38;3.63;;;2.28;;
25279;SDS011;13225;47.804;12.116;2022-07-29T05:42:08;5.32;;;2.65;;
25279;SDS011;13225;47.804;12.116;2022-07-29T05:44:38;3.78;;;2.72;;
25279;SDS011;13225;47.804;12.116;2022-07-29T05:47:05;2.30;;;2.10;;
25279;SDS011;13225;47.804;12.116;2022-07-29T05:49:31;3.53;;;2.38;;
25279;SDS011;13225;47.804;12.116;2022-07-29T05:51:57;4.50;;;2.45;;
25279;SDS011;13225;47.804;12.116;2022-07-29T05:54:23;2.30;;;2.10;;
25279;SDS011;13225;47.804;12.116;2022-07-29T05:56:49;2.40;;;2.20;;
25279;SDS011;13225;47.804;12.116;2022-07-29T05:59:15;3.25;;;2.38;;
25279;SDS011;13225;47.804;12.116;2022-07-29T06:01:41;2.47;;;2.22;;
25279;SDS011;13225;47.804;12.116;2022-07-29T06:04:06;3.38;;;2.30;;
25279;SDS011;13225;47.804;12.116;2022-07-29T06:06:33;2.20;;;2.00;;
25279;SDS011;13225;47.804;12.116;2022-07-29T06:09:00;3.00;;;2.35;;
25279;SDS011;13225;47.804;12.116;2022-07-29T06:11:26;2.60;;;2.40;;
25279;SDS011;13225;47.804;12.116;2022-07-29T06:13:53;2.30;;;2.10;;
25279;SDS011;13225;47.804;12.116;2022-07-29T06:16:19;2.60;;;2.20;;
25279;SDS011;13225;47.804;12.116;2022-07-29T06:18:45;3.00;;;2.10;;
25279;SDS011;13225;47.804;12.116;2022-07-29T06:21:11;4.32;;;1.90;;
25279;SDS011;13225;47.804;12.116;2022-07-29T06:23:38;2.13;;;1.98;;
25279;SDS011;13225;47.804;12.116;2022-07-29T06:26:04;2.25;;;2.10;;
25279;SDS011;13225;47.804;12.116;2022-07-29T06:28:31;2.35;;;2.10;;
25279;SDS011;13225;47.804;12.116;2022-07-29T06:30:57;3.45;;;2.05;;
25279;SDS011;13225;47.804;12.116;2022-07-29T06:33:24;4.00;;;2.25;;
25279;SDS011;13225;47.804;12.116;2022-07-29T06:35:49;3.42;;;2.30;;
25279;SDS011;13225;47.804;12.116;2022-07-29T06:38:15;3.33;;;2.45;;
25279;SDS011;13225;47.804;12.116;2022-07-29T06:40:44;5.07;;;2.47;;
25279;SDS011;13225;47.804;12.116;2022-07-29T06:43:27;2.40;;;1.95;;
25279;SDS011;13225;47.804;12.116;2022-07-29T06:46:03;3.33;;;2.33;;
25279;SDS011;13225;47.804;12.116;2022-07-29T06:48:30;3.55;;;2.50;;
25279;SDS011;13225;47.804;12.116;2022-07-29T06:50:56;2.30;;;2.03;;
25279;SDS011;13225;47.804;12.116;2022-07-29T06:53:22;3.88;;;2.33;;
25279;SDS011;13225;47.804;12.116;2022-07-29T06:55:48;2.80;;;2.10;;
25279;SDS011;13225;47.804;12.116;2022-07-29T06:58:16;3.17;;;2.30;;
25279;SDS011;13225;47.804;12.116;2022-07-29T07:00:43;4.43;;;2.30;;
25279;SDS011;13225;47.804;12.116;2022-07-29T07:03:10;3.85;;;2.17;;
25279;SDS011;13225;47.804;12.116;2022-07-29T07:05:36;3.75;;;2.20;;
25279;SDS011;13225;47.804;12.116;2022-07-29T07:08:02;3.28;;;2.33;;
25279;SDS011;13225;47.804;12.116;2022-07-29T07:10:28;2.67;;;2.30;;
25279;SDS011;13225;47.804;12.116;2022-07-29T07:12:54;3.22;;;2.40;;
25279;SDS011;13225;47.804;12.116;2022-07-29T07:15:20;2.47;;;2.20;;
25279;SDS011;13225;47.804;12.116;2022-07-29T07:17:49;2.45;;;2.25;;
25279;SDS011;13225;47.804;12.116;2022-07-29T07:20:16;4.07;;;2.40;;
25279;SDS011;13225;47.804;12.116;2022-07-29T07:22:42;3.03;;;2.30;;
25279;SDS011;13225;47.804;12.116;2022-07-29T07:25:08;3.28;;;2.20;;
25279;SDS011;13225;47.804;12.116;2022-07-29T07:27:37;2.78;;;2.10;;
25279;SDS011;13225;47.804;12.116;2022-07-29T07:30:04;4.53;;;2.20;;
25279;SDS011;13225;47.804;12.116;2022-07-29T07:32:31;2.55;;;2.22;;
25279;SDS011;13225;47.804;12.116;2022-07-29T07:35:00;2.03;;;1.80;;
25279;SDS011;13225;47.804;12.116;2022-07-29T07:37:26;2.17;;;1.98;;
25279;SDS011;13225;47.804;12.116;2022-07-29T07:39:52;2.08;;;1.88;;
25279;SDS011;13225;47.804;12.116;2022-07-29T07:42:18;1.92;;;1.83;;
25279;SDS011;13225;47.804;12.116;2022-07-29T07:44:44;2.30;;;2.00;;
25279;SDS011;13225;47.804;12.116;2022-07-29T07:47:11;2.20;;;2.00;;
25279;SDS011;13225;47.804;12.116;2022-07-29T07:49:38;2.45;;;2.10;;
25279;SDS011;13225;47.804;12.116;2022-07-29T07:52:04;2.72;;;2.08;;
25279;SDS011;13225;47.804;12.116;2022-07-29T07:54:30;2.75;;;1.90;;
25279;SDS011;13225;47.804;12.116;2022-07-29T07:56:56;2.22;;;2.03;;
25279;SDS011;13225;47.804;12.116;2022-07-29T07:59:23;2.78;;;2.00;;
25279;SDS011;13225;47.804;12.116;2022-07-29T08:01:49;2.30;;;2.10;;
25279;SDS011;13225;47.804;12.116;2022-07-29T08:04:15;4.13;;;2.20;;
25279;SDS011;13225;47.804;12.116;2022-07-29T08:06:41;2.30;;;2.10;;
25279;SDS011;13225;47.804;12.116;2022-07-29T08:09:07;2.00;;;1.90;;
25279;SDS011;13225;47.804;12.116;2022-07-29T08:11:33;2.55;;;2.15;;
25279;SDS011;13225;47.804;12.116;2022-07-29T08:13:59;2.00;;;1.90;;
25279;SDS011;13225;47.804;12.116;2022-07-29T08:16:26;2.85;;;2.03;;
25279;SDS011;13225;47.804;12.116;2022-07-29T08:18:53;2.20;;;2.00;;
25279;SDS011;13225;47.804;12.116;2022-07-29T08:21:22;3.78;;;2.10;;
25279;SDS011;13225;47.804;12.116;2022-07-29T08:23:49;3.22;;;2.13;;
25279;SDS011;13225;47.804;12.116;2022-07-29T08:26:17;4.65;;;1.98;;
25279;SDS011;13225;47.804;12.116;2022-07-29T08:28:45;2.10;;;1.95;;
25279;SDS011;13225;47.804;12.116;2022-07-29T08:31:14;2.08;;;1.90;;
25279;SDS011;13225;47.804;12.116;2022-07-29T08:33:41;4.07;;;2.22;;
25279;SDS011;13225;47.804;12.116;2022-07-29T08:36:08;2.38;;;2.17;;
25279;SDS011;13225;47.804;12.116;2022-07-29T08:38:34;2.33;;;2.13;;
25279;SDS011;13225;47.804;12.116;2022-07-29T08:41:00;2.28;;;1.75;;
25279;SDS011;13225;47.804;12.116;2022-07-29T08:43:29;2.95;;;2.03;;
25279;SDS011;13225;47.804;12.116;2022-07-29T08:45:56;3.58;;;2.00;;
25279;SDS011;13225;47.804;12.116;2022-07-29T08:48:23;2.20;;;2.00;;
25279;SDS011;13225;47.804;12.116;2022-07-29T08:50:54;2.22;;;2.03;;
25279;SDS011;13225;47.804;12.116;2022-07-29T08:53:21;2.50;;;1.63;;
25279;SDS011;13225;47.804;12.116;2022-07-29T08:55:51;2.15;;;1.95;;
25279;SDS011;13225;47.804;12.116;2022-07-29T08:58:19;2.47;;;2.15;;
25279;SDS011;13225;47.804;12.116;2022-07-29T09:00:47;2.70;;;1.80;;
25279;SDS011;13225;47.804;12.116;2022-07-29T09:03:18;2.08;;;1.90;;
25279;SDS011;13225;47.804;12.116;2022-07-29T09:05:45;3.88;;;1.83;;
25279;SDS011;13225;47.804;12.116;2022-07-29T09:08:15;2.00;;;1.80;;
25279;SDS011;13225;47.804;12.116;2022-07-29T09:10:42;2.25;;;1.67;;
25279;SDS011;13225;47.804;12.116;2022-07-29T09:13:09;1.92;;;1.50;;
25279;SDS011;13225;47.804;12.116;2022-07-29T09:15:35;2.22;;;1.70;;
25279;SDS011;13225;47.804;12.116;2022-07-29T09:18:00;2.65;;;1.80;;
25279;SDS011;13225;47.804;12.116;2022-07-29T09:20:27;3.38;;;1.80;;
25279;SDS011;13225;47.804;12.116;2022-07-29T09:23:13;1.85;;;1.70;;
25279;SDS011;13225;47.804;12.116;2022-07-29T09:25:40;2.10;;;1.73;;
25279;SDS011;13225;47.804;12.116;2022-07-29T09:28:07;1.83;;;1.67;;
25279;SDS011;13225;47.804;12.116;2022-07-29T09:30:34;2.08;;;1.60;;
25279;SDS011;13225;47.804;12.116;2022-07-29T09:33:01;1.80;;;1.70;;
25279;SDS011;13225;47.804;12.116;2022-07-29T09:35:28;2.28;;;1.73;;
25279;SDS011;13225;47.804;12.116;2022-07-29T09:37:56;1.88;;;1.70;;
25279;SDS011;13225;47.804;12.116;2022-07-29T09:40:23;2.50;;;1.45;;
25279;SDS011;13225;47.804;12.116;2022-07-29T09:42:50;2.13;;;1.58;;
25279;SDS011;13225;47.804;12.116;2022-07-29T09:45:28;2.03;;;1.38;;
25279;SDS011;13225;47.804;12.116;2022-07-29T09:47:57;1.55;;;1.45;;
25279;SDS011;13225;47.804;12.116;2022-07-29T09:50:36;2.15;;;1.48;;
25279;SDS011;13225;47.804;12.116;2022-07-29T09:53:02;1.70;;;1.60;;
25279;SDS011;13225;47.804;12.116;2022-07-29T09:55:28;1.88;;;1.50;;
25279;SDS011;13225;47.804;12.116;2022-07-29T09:57:54;1.55;;;1.42;;
25279;SDS011;13225;47.804;12.116;2022-07-29T10:00:41;2.15;;;1.73;;
25279;SDS011;13225;47.804;12.116;2022-07-29T10:03:08;2.88;;;1.55;;
25279;SDS011;13225;47.804;12.116;2022-07-29T10:05:34;5.10;;;1.60;;
25279;SDS011;13225;47.804;12.116;2022-07-29T10:08:00;2.35;;;1.40;;
25279;SDS011;13225;47.804;12.116;2022-07-29T10:10:34;1.40;;;1.30;;
25279;SDS011;13225;47.804;12.116;2022-07-29T10:13:06;1.45;;;1.35;;
25279;SDS011;13225;47.804;12.116;2022-07-29T10:15:35;2.20;;;1.50;;
25279;SDS011;13225;47.804;12.116;2022-07-29T10:18:05;2.80;;;1.23;;
25279;SDS011;13225;47.804;12.116;2022-07-29T10:20:32;2.53;;;1.70;;
25279;SDS011;13225;47.804;12.116;2022-07-29T10:22:59;1.95;;;1.40;;
25279;SDS011;13225;47.804;12.116;2022-07-29T10:25:25;1.67;;;1.58;;
25279;SDS011;13225;47.804;12.116;2022-07-29T10:27:52;1.55;;;1.40;;
25279;SDS011;13225;47.804;12.116;2022-07-29T10:30:20;1.73;;;1.63;;
25279;SDS011;13225;47.804;12.116;2022-07-29T10:38:29;2.63;;;1.33;;
25279;SDS011;13225;47.804;12.116;2022-07-29T10:44:21;1.77;;;1.10;;
25279;SDS011;13225;47.804;12.116;2022-07-29T10:46:47;1.63;;;1.48;;
25279;SDS011;13225;47.804;12.116;2022-07-29T10:49:23;1.73;;;1.50;;
25279;SDS011;13225;47.804;12.116;2022-07-29T10:54:38;1.52;;;1.42;;
25279;SDS011;13225;47.804;12.116;2022-07-29T11:04:58;2.97;;;1.80;;
25279;SDS011;13225;47.804;12.116;2022-07-29T11:07:27;2.38;;;1.73;;
25279;SDS011;13225;47.804;12.116;2022-07-29T11:15:06;1.67;;;1.58;;
25279;SDS011;13225;47.804;12.116;2022-07-29T11:20:39;2.50;;;2.03;;
25279;SDS011;13225;47.804;12.116;2022-07-29T11:23:20;2.00;;;1.90;;
25279;SDS011;13225;47.804;12.116;2022-07-29T11:28:59;1.90;;;1.80;;
25279;SDS011;13225;47.804;12.116;2022-07-29T11:31:32;2.38;;;2.17;;
25279;SDS011;13225;47.804;12.116;2022-07-29T11:34:31;2.22;;;2.03;;
25279;SDS011;13225;47.804;12.116;2022-07-29T11:39:37;3.78;;;2.30;;
25279;SDS011;13225;47.804;12.116;2022-07-29T11:45:01;2.30;;;2.10;;
25279;SDS011;13225;47.804;12.116;2022-07-29T11:47:34;2.45;;;2.25;;
25279;SDS011;13225;47.804;12.116;2022-07-29T11:50:03;2.80;;;2.42;;
25279;SDS011;13225;47.804;12.116;2022-07-29T11:52:32;2.63;;;2.42;;
25279;SDS011;13225;47.804;12.116;2022-07-29T11:55:08;2.47;;;2.20;;
25279;SDS011;13225;47.804;12.116;2022-07-29T11:57:35;2.38;;;2.17;;
25279;SDS011;13225;47.804;12.116;2022-07-29T12:00:03;2.30;;;2.10;;
25279;SDS011;13225;47.804;12.116;2022-07-29T12:02:42;4.18;;;2.20;;
25279;SDS011;13225;47.804;12.116;2022-07-29T12:05:10;4.00;;;2.25;;
25279;SDS011;13225;47.804;12.116;2022-07-29T12:07:36;2.47;;;2.05;;
25279;SDS011;13225;47.804;12.116;2022-07-29T12:10:04;2.40;;;2.20;;
25279;SDS011;13225;47.804;12.116;2022-07-29T12:12:31;2.65;;;2.40;;
25279;SDS011;13225;47.804;12.116;2022-07-29T12:14:57;3.00;;;2.47;;
25279;SDS011;13225;47.804;12.116;2022-07-29T12:17:35;2.17;;;2.08;;
25279;SDS011;13225;47.804;12.116;2022-07-29T12:20:03;4.55;;;2.40;;
25279;SDS011;13225;47.804;12.116;2022-07-29T12:22:31;2.92;;;2.53;;
25279;SDS011;13225;47.804;12.116;2022-07-29T12:25:09;2.75;;;2.55;;
25279;SDS011;13225;47.804;12.116;2022-07-29T12:27:37;3.05;;;2.50;;
25279;SDS011;13225;47.804;12.116;2022-07-29T12:30:13;3.55;;;2.50;;
25279;SDS011;13225;47.804;12.116;2022-07-29T12:32:47;2.55;;;2.35;;
25279;SDS011;13225;47.804;12.116;2022-07-29T12:35:18;2.28;;;2.08;;
25279;SDS011;13225;47.804;12.116;2022-07-29T12:37:45;2.55;;;2.25;;
25279;SDS011;13225;47.804;12.116;2022-07-29T12:40:17;2.20;;;2.10;;
25279;SDS011;13225;47.804;12.116;2022-07-29T12:43:04;3.17;;;2.50;;
25279;SDS011;13225;47.804;12.116;2022-07-29T12:45:34;2.30;;;2.10;;
25279;SDS011;13225;47.804;12.116;2022-07-29T12:48:04;2.70;;;2.30;;
25279;SDS011;13225;47.804;12.116;2022-07-29T12:50:34;5.25;;;2.35;;
25279;SDS011;13225;47.804;12.116;2022-07-29T12:53:18;2.55;;;2.10;;
25279;SDS011;13225;47.804;12.116;2022-07-29T12:55:45;4.00;;;2.00;;
25279;SDS011;13225;47.804;12.116;2022-07-29T12:58:33;2.20;;;2.00;;
25279;SDS011;13225;47.804;12.116;2022-07-29T13:01:10;2.58;;;2.10;;
25279;SDS011;13225;47.804;12.116;2022-07-29T13:11:43;2.55;;;2.35;;
25279;SDS011;13225;47.804;12.116;2022-07-29T13:14:29;2.00;;;1.90;;
25279;SDS011;13225;47.804;12.116;2022-07-29T13:17:07;2.75;;;2.17;;
25279;SDS011;13225;47.804;12.116;2022-07-29T13:19:50;2.85;;;2.20;;
25279;SDS011;13225;47.804;12.116;2022-07-29T13:22:19;2.10;;;2.00;;
25279;SDS011;13225;47.804;12.116;2022-07-29T13:24:47;3.28;;;2.22;;
25279;SDS011;13225;47.804;12.116;2022-07-29T13:27:30;2.08;;;1.98;;
25279;SDS011;13225;47.804;12.116;2022-07-29T13:29:59;3.20;;;2.13;;
25279;SDS011;13225;47.804;12.116;2022-07-29T13:32:27;4.20;;;2.45;;
25279;SDS011;13225;47.804;12.116;2022-07-29T13:34:58;3.47;;;2.10;;
25279;SDS011;13225;47.804;12.116;2022-07-29T13:37:27;3.10;;;2.10;;
25279;SDS011;13225;47.804;12.116;2022-07-29T13:39:54;3.45;;;2.20;;
25279;SDS011;13225;47.804;12.116;2022-07-29T13:42:21;3.17;;;2.17;;
25279;SDS011;13225;47.804;12.116;2022-07-29T13:44:48;2.80;;;2.10;;
25279;SDS011;13225;47.804;12.116;2022-07-29T13:47:16;2.55;;;2.30;;
25279;SDS011;13225;47.804;12.116;2022-07-29T13:49:42;2.58;;;2.08;;
25279;SDS011;13225;47.804;12.116;2022-07-29T13:52:08;2.50;;;2.30;;
25279;SDS011;13225;47.804;12.116;2022-07-29T13:54:34;3.58;;;2.28;;
25279;SDS011;13225;47.804;12.116;2022-07-29T13:57:06;4.38;;;2.20;;
25279;SDS011;13225;47.804;12.116;2022-07-29T13:59:33;2.28;;;2.08;;
25279;SDS011;13225;47.804;12.116;2022-07-29T14:01:59;3.05;;;2.22;;
25279;SDS011;13225;47.804;12.116;2022-07-29T14:04:25;2.60;;;2.28;;
25279;SDS011;13225;47.804;12.116;2022-07-29T14:06:51;2.60;;;2.25;;
25279;SDS011;13225;47.804;12.116;2022-07-29T14:09:17;2.25;;;2.05;;
25279;SDS011;13225;47.804;12.116;2022-07-29T14:11:43;2.03;;;1.92;;
25279;SDS011;13225;47.804;12.116;2022-07-29T14:14:09;4.90;;;2.22;;
25279;SDS011;13225;47.804;12.116;2022-07-29T14:16:35;2.78;;;2.10;;
25279;SDS011;13225;47.804;12.116;2022-07-29T14:19:01;3.42;;;2.05;;
25279;SDS011;13225;47.804;12.116;2022-07-29T14:21:27;4.43;;;2.78;;
25279;SDS011;13225;47.804;12.116;2022-07-29T14:23:53;3.17;;;2.33;;
25279;SDS011;13225;47.804;12.116;2022-07-29T14:26:20;3.95;;;2.10;;
25279;SDS011;13225;47.804;12.116;2022-07-29T14:28:47;5.22;;;2.38;;
25279;SDS011;13225;47.804;12.116;2022-07-29T14:31:14;3.22;;;2.30;;
25279;SDS011;13225;47.804;12.116;2022-07-29T14:33:40;2.17;;;1.95;;
25279;SDS011;13225;47.804;12.116;2022-07-29T14:36:07;2.67;;;2.00;;
25279;SDS011;13225;47.804;12.116;2022-07-29T14:38:35;2.00;;;1.90;;
25279;SDS011;13225;47.804;12.116;2022-07-29T14:41:02;1.95;;;1.80;;
25279;SDS011;13225;47.804;12.116;2022-07-29T14:43:28;2.83;;;1.90;;
25279;SDS011;13225;47.804;12.116;2022-07-29T14:45:55;2.90;;;1.92;;
25279;SDS011;13225;47.804;12.116;2022-07-29T14:48:21;2.88;;;1.80;;
25279;SDS011;13225;47.804;12.116;2022-07-29T14:50:46;2.63;;;1.85;;
25279;SDS011;13225;47.804;12.116;2022-07-29T14:53:12;2.33;;;1.80;;
25279;SDS011;13225;47.804;12.116;2022-07-29T14:55:38;2.08;;;1.77;;
25279;SDS011;13225;47.804;12.116;2022-07-29T14:58:06;2.83;;;1.80;;
25279;SDS011;13225;47.804;12.116;2022-07-29T15:00:32;2.42;;;1.88;;
25279;SDS011;13225;47.804;12.116;2022-07-29T15:03:01;1.80;;;1.70;;
25279;SDS011;13225;47.804;12.116;2022-07-29T15:05:28;3.33;;;1.88;;
25279;SDS011;13225;47.804;12.116;2022-07-29T15:07:58;3.55;;;2.20;;
25279;SDS011;13225;47.804;12.116;2022-07-29T15:10:25;4.25;;;2.10;;
25279;SDS011;13225;47.804;12.116;2022-07-29T15:12:52;4.18;;;3.65;;
25279;SDS011;13225;47.804;12.116;2022-07-29T15:15:18;5.05;;;2.90;;
25279;SDS011;13225;47.804;12.116;2022-07-29T15:17:45;2.30;;;2.10;;
25279;SDS011;13225;47.804;12.116;2022-07-29T15:20:11;3.10;;;1.90;;
25279;SDS011;13225;47.804;12.116;2022-07-29T15:22:37;2.28;;;2.05;;
25279;SDS011;13225;47.804;12.116;2022-07-29T15:25:04;2.30;;;2.10;;
25279;SDS011;13225;47.804;12.116;2022-07-29T15:27:31;2.40;;;2.20;;
25279;SDS011;13225;47.804;12.116;2022-07-29T15:29:57;2.47;;;2.05;;
25279;SDS011;13225;47.804;12.116;2022-07-29T15:32:23;2.47;;;2.13;;
25279;SDS011;13225;47.804;12.116;2022-07-29T15:34:48;2.38;;;1.95;;
25279;SDS011;13225;47.804;12.116;2022-07-29T15:37:14;2.17;;;1.98;;